Time;durP1;ratioP1;P1;durP2;ratioP2;P2;SDS_P1;SDS_P2;PMS_P1;PMS_P2;Temp;Humidity;BMP_temperature;BMP_pressure;BME280_temperature;BME280_humidity;BME280_pressure;Samples;Min_cycle;Max_cycle;Signal;HPM_P1;HPM_P2
2021/06/26 00:00:23;;;;;;;;;;;;;;;31.14;47.03;100177.98;1804465;79;20131;-76
2021/06/26 00:02:49;;;;;;;;;;;;;;;31.14;47.11;100177.98;1804479;79;20131;-76
2021/06/26 00:05:15;;;;;;;;;;;;;;;31.13;47.28;100174.96;1804590;79;20146;-76
2021/06/26 00:07:41;;;;;;;;;;;;;;;31.12;47.46;100168.61;1804669;79;20787;-76
2021/06/26 00:10:09;;;;;;;;;;;;;;;31.14;47.62;100169.11;1804461;79;20456;-76
2021/06/26 00:12:35;;;;;;;;;;;;;;;31.14;47.77;100166.34;1804429;79;20136;-76
2021/06/26 00:15:03;;;;;;;;;;;;;;;31.15;47.83;100159.69;1804359;79;20186;-76
2021/06/26 00:17:29;;;;;;;;;;;;;;;31.14;47.90;100160.00;1804321;79;20088;-76
2021/06/26 00:19:57;;;;;;;;;;;;;;;31.13;47.90;100163.33;1804562;79;20079;-76
2021/06/26 00:22:24;;;;;;;;;;;;;;;31.13;47.96;100164.71;1804889;79;20433;-76
2021/06/26 00:24:49;;;;;;;;;;;;;;;31.13;48.09;100158.36;1804837;79;20150;-78
2021/06/26 00:27:15;;;;;;;;;;;;;;;31.11;48.20;100161.41;1804857;79;20232;-76
2021/06/26 00:29:42;;;;;;;;;;;;;;;31.12;48.23;100164.45;1804446;79;20438;-77
2021/06/26 00:32:08;;;;;;;;;;;;;;;31.13;48.22;100163.33;1804631;79;20253;-78
2021/06/26 00:34:34;;;;;;;;;;;;;;;31.14;48.15;100156.66;1804924;79;20162;-76
2021/06/26 00:37:00;;;;;;;;;;;;;;;31.25;47.86;100156.77;1804505;79;20253;-77
2021/06/26 00:39:26;;;;;;;;;;;;;;;31.15;48.14;100151.38;1804713;79;20200;-79
2021/06/26 00:41:52;;;;;;;;;;;;;;;31.11;48.35;100148.96;1804761;79;20161;-78
2021/06/26 00:44:18;;;;;;;;;;;;;;;31.10;48.57;100151.47;1804951;79;20202;-77
2021/06/26 00:46:44;;;;;;;;;;;;;;;31.10;48.70;100150.66;1804568;79;20402;-78
2021/06/26 00:49:10;;;;;;;;;;;;;;;31.07;48.88;100152.91;1804945;79;20158;-78
2021/06/26 00:51:38;;;;;;;;;;;;;;;31.09;48.90;100156.75;1804428;79;20162;-78
2021/06/26 00:54:04;;;;;;;;;;;;;;;31.07;48.72;100153.48;1804865;79;20209;-78
2021/06/26 00:56:30;;;;;;;;;;;;;;;31.04;48.42;100156.84;1804664;79;20186;-78
2021/06/26 00:58:57;;;;;;;;;;;;;;;31.03;48.05;100163.51;1804467;79;20159;-78
2021/06/26 01:01:23;;;;;;;;;;;;;;;31.00;47.87;100170.45;1804669;79;20139;-78
2021/06/26 01:03:49;;;;;;;;;;;;;;;30.97;47.80;100168.84;1804924;79;20146;-78
2021/06/26 01:06:15;;;;;;;;;;;;;;;30.94;47.72;100165.31;1804457;79;20169;-78
2021/06/26 01:08:43;;;;;;;;;;;;;;;30.92;47.69;100170.31;1804589;79;20155;-77
2021/06/26 01:11:11;;;;;;;;;;;;;;;30.89;47.70;100162.06;1804236;79;20429;-75
2021/06/26 01:13:37;;;;;;;;;;;;;;;31.01;47.41;100159.64;1804718;79;20155;-77
2021/06/26 01:16:03;;;;;;;;;;;;;;;30.92;47.66;100156.48;1804498;79;20139;-78
2021/06/26 01:18:29;;;;;;;;;;;;;;;30.90;47.72;100159.55;1804864;79;20124;-78
2021/06/26 01:20:56;;;;;;;;;;;;;;;30.88;47.71;100152.67;1804564;79;20135;-78
2021/06/26 01:23:24;;;;;;;;;;;;;;;30.89;47.65;100152.39;1780031;79;20361;-77
2021/06/26 01:25:50;;;;;;;;;;;;;;;30.88;47.60;100156.81;1804149;79;20164;-78
2021/06/26 01:28:16;;;;;;;;;;;;;;;30.87;47.58;100160.15;1804335;79;20131;-78
2021/06/26 01:30:43;;;;;;;;;;;;;;;30.91;47.46;100163.14;1804038;79;20160;-78
2021/06/26 01:33:09;;;;;;;;;;;;;;;30.88;47.47;100160.40;1804525;79;20261;-78
2021/06/26 01:35:35;;;;;;;;;;;;;;;30.88;47.49;100159.58;1804969;79;20173;-78
2021/06/26 01:38:02;;;;;;;;;;;;;;;30.86;47.51;100160.45;1804671;79;20159;-78
2021/06/26 01:40:28;;;;;;;;;;;;;;;30.81;47.67;100161.36;1806186;78;20170;-78
2021/06/26 01:42:55;;;;;;;;;;;;;;;30.85;47.60;100156.05;1805299;79;20171;-78
2021/06/26 01:45:21;;;;;;;;;;;;;;;30.86;47.59;100171.52;1805977;79;20128;-78
2021/06/26 01:47:51;;;;;;;;;;;;;;;30.87;47.50;100170.39;1806761;79;20159;-78
2021/06/26 01:50:18;;;;;;;;;;;;;;;30.86;47.52;100169.58;1806399;79;20139;-77
2021/06/26 01:52:44;;;;;;;;;;;;;;;30.86;47.57;100179.81;1806114;79;20405;-76
2021/06/26 01:55:12;;;;;;;;;;;;;;;30.84;47.75;100188.39;1806226;79;20160;-76
2021/06/26 01:57:40;;;;;;;;;;;;;;;30.79;48.00;100174.08;1806121;79;20175;-77
2021/06/26 02:00:06;;;;;;;;;;;;;;;30.78;48.27;100178.54;1805663;79;20174;-77
2021/06/26 02:02:35;;;;;;;;;;;;;;;30.75;48.37;100183.28;1805044;79;20194;-77
2021/06/26 02:05:06;;;;;;;;;;;;;;;30.73;48.51;100183.59;1805539;79;20135;-77
2021/06/26 02:07:34;;;;;;;;;;;;;;;30.69;48.37;100185.27;1805727;79;20131;-77
2021/06/26 02:10:00;;;;;;;;;;;;;;;30.65;48.19;100191.13;1806112;79;20365;-77
2021/06/26 02:12:26;;;;;;;;;;;;;;;30.64;48.04;100211.61;1806635;79;20173;-77
2021/06/26 02:14:53;;;;;;;;;;;;;;;30.61;47.93;100208.61;1806274;79;20194;-78
2021/06/26 02:17:21;;;;;;;;;;;;;;;30.55;47.91;100199.58;1806072;79;20139;-77
2021/06/26 02:19:47;;;;;;;;;;;;;;;30.51;47.92;100201.28;1806205;79;20135;-77
2021/06/26 02:22:14;;;;;;;;;;;;;;;30.46;47.92;100198.59;1806341;79;20132;-77
2021/06/26 02:24:40;;;;;;;;;;;;;;;30.43;48.00;100197.80;1806461;79;20123;-77
2021/06/26 02:27:06;;;;;;;;;;;;;;;30.40;48.03;100198.41;1806755;79;20119;-77
2021/06/26 02:29:33;;;;;;;;;;;;;;;30.38;48.04;100204.22;1806230;79;20136;-77
2021/06/26 02:31:59;;;;;;;;;;;;;;;30.37;48.12;100201.20;1806113;79;20131;-77
2021/06/26 02:34:25;;;;;;;;;;;;;;;30.37;48.17;100201.76;1806376;79;20163;-77
2021/06/26 02:36:52;;;;;;;;;;;;;;;30.38;48.23;100199.25;1806169;79;20171;-77
2021/06/26 02:39:18;;;;;;;;;;;;;;;30.38;48.21;100197.87;1806243;79;20245;-77
2021/06/26 02:41:44;;;;;;;;;;;;;;;30.40;48.26;100194.27;1806342;79;20724;-77
2021/06/26 02:44:11;;;;;;;;;;;;;;;30.41;48.35;100187.05;1809323;78;20423;-77
2021/06/26 02:46:39;;;;;;;;;;;;;;;30.42;48.37;100189.25;1802528;78;20429;-77
2021/06/26 02:49:06;;;;;;;;;;;;;;;30.43;48.43;100185.36;1801166;79;20198;-78
2021/06/26 02:51:32;;;;;;;;;;;;;;;30.45;48.39;100183.95;1800574;78;20118;-78
2021/06/26 02:53:59;;;;;;;;;;;;;;;30.49;48.38;100187.77;1799738;79;20210;-77
2021/06/26 02:56:25;;;;;;;;;;;;;;;30.50;48.44;100187.21;1804356;79;20187;-77
2021/06/26 02:58:51;;;;;;;;;;;;;;;30.53;48.29;100179.72;1804436;79;20153;-77
2021/06/26 03:01:17;;;;;;;;;;;;;;;30.52;48.05;100178.90;1804581;79;20747;-77
2021/06/26 03:03:43;;;;;;;;;;;;;;;30.53;47.82;100174.19;1804206;79;20253;-77
2021/06/26 03:06:08;;;;;;;;;;;;;;;30.54;47.58;100173.06;1804531;79;20669;-77
2021/06/26 03:08:35;;;;;;;;;;;;;;;30.54;47.38;100171.68;1804005;79;20198;-77
2021/06/26 03:11:00;;;;;;;;;;;;;;;30.54;47.31;100176.64;1804349;79;20237;-77
2021/06/26 03:13:26;;;;;;;;;;;;;;;30.53;47.20;100177.77;1805173;79;20142;-77
2021/06/26 03:15:53;;;;;;;;;;;;;;;30.50;47.00;100172.01;1805876;79;20186;-77
2021/06/26 03:18:20;;;;;;;;;;;;;;;30.51;47.00;100169.50;1805550;78;20170;-77
2021/06/26 03:20:47;;;;;;;;;;;;;;;30.50;46.79;100161.77;1805387;79;20190;-77
2021/06/26 03:23:14;;;;;;;;;;;;;;;30.53;46.55;100170.05;1804940;79;20496;-77
2021/06/26 03:25:40;;;;;;;;;;;;;;;30.48;46.50;100157.68;1806220;79;20147;-77
2021/06/26 03:28:06;;;;;;;;;;;;;;;30.51;46.51;100159.83;1818598;78;20809;-77
2021/06/26 03:30:32;;;;;;;;;;;;;;;30.52;46.59;100163.70;1839260;78;20187;-76
2021/06/26 03:32:58;;;;;;;;;;;;;;;30.53;46.61;100158.42;1838309;78;20226;-76
2021/06/26 03:35:24;;;;;;;;;;;;;;;30.53;46.42;100158.42;1838975;78;20146;-76
2021/06/26 03:37:50;;;;;;;;;;;;;;;30.56;46.22;100159.75;1837566;78;20204;-77
2021/06/26 03:40:18;;;;;;;;;;;;;;;30.54;46.14;100157.86;1838115;78;20180;-77
2021/06/26 03:42:44;;;;;;;;;;;;;;;30.53;46.16;100158.98;1838720;78;20133;-76
2021/06/26 03:45:12;;;;;;;;;;;;;;;30.52;46.24;100158.17;1837696;78;20481;-76
2021/06/26 03:47:38;;;;;;;;;;;;;;;30.51;46.21;100157.88;1811126;78;20180;-77
2021/06/26 03:50:06;;;;;;;;;;;;;;;30.50;46.05;100161.77;1837781;78;20124;-77
2021/06/26 03:52:32;;;;;;;;;;;;;;;30.41;46.00;100152.50;1837779;78;20172;-76
2021/06/26 03:55:00;;;;;;;;;;;;;;;30.40;46.23;100161.11;1836635;78;20184;-77
2021/06/26 03:57:26;;;;;;;;;;;;;;;30.39;46.21;100147.84;1836162;78;20168;-76
2021/06/26 03:59:52;;;;;;;;;;;;;;;30.43;46.18;100153.58;1836715;78;20285;-76
2021/06/26 04:02:18;;;;;;;;;;;;;;;30.48;46.33;100147.44;1837111;78;20222;-76
2021/06/26 04:04:45;;;;;;;;;;;;;;;30.53;46.35;100149.31;1836998;78;20277;-76
2021/06/26 04:07:14;;;;;;;;;;;;;;;30.54;46.22;100145.42;1837132;78;20558;-77
2021/06/26 04:09:40;;;;;;;;;;;;;;;30.56;46.17;100155.61;1837731;78;20137;-77
2021/06/26 04:12:07;;;;;;;;;;;;;;;30.57;46.10;100152.56;1839421;78;20128;-77
2021/06/26 04:14:33;;;;;;;;;;;;;;;30.60;46.03;100155.27;1839032;78;20141;-77
2021/06/26 04:16:59;;;;;;;;;;;;;;;30.62;46.09;100151.66;1839420;78;20219;-77
2021/06/26 04:19:26;;;;;;;;;;;;;;;30.66;46.03;100147.19;1839086;78;20126;-76
2021/06/26 04:21:52;;;;;;;;;;;;;;;30.70;46.05;100150.97;1839219;78;20145;-76
2021/06/26 04:24:18;;;;;;;;;;;;;;;30.74;46.11;100149.84;1839397;78;20262;-77
2021/06/26 04:26:44;;;;;;;;;;;;;;;30.78;46.07;100145.36;1839137;78;20122;-77
2021/06/26 04:29:10;;;;;;;;;;;;;;;30.85;45.92;100148.58;1838092;78;20161;-77
2021/06/26 04:31:36;;;;;;;;;;;;;;;30.92;45.86;100148.19;1804165;79;20575;-77
2021/06/26 04:34:02;;;;;;;;;;;;;;;30.98;45.69;100142.28;1804766;79;20181;-77
2021/06/26 04:36:34;;;;;;;;;;;;;;;31.05;45.49;100139.12;1803145;79;20178;-77
2021/06/26 04:39:07;;;;;;;;;;;;;;;31.10;45.14;100137.64;1767735;80;20212;-77
2021/06/26 04:41:31;;;;;;;;;;;;;;;31.13;44.65;100126.55;1743978;81;20205;-77
2021/06/26 04:43:57;;;;;;;;;;;;;;;31.16;44.73;100133.68;1773082;81;20155;-77
2021/06/26 04:46:23;;;;;;;;;;;;;;;31.23;44.67;100134.66;1766869;81;20234;-77
2021/06/26 04:48:49;;;;;;;;;;;;;;;31.31;44.57;100137.58;1771718;81;20223;-77
2021/06/26 04:51:17;;;;;;;;;;;;;;;31.40;44.42;100132.17;1768007;81;20208;-77
2021/06/26 04:53:43;;;;;;;;;;;;;;;31.47;44.39;100133.96;1750947;81;20450;-77
2021/06/26 04:56:09;;;;;;;;;;;;;;;31.55;44.52;100137.98;1770516;79;20172;-77
2021/06/26 04:58:36;;;;;;;;;;;;;;;31.63;44.59;100131.73;1782882;79;20197;-77
2021/06/26 05:01:02;;;;;;;;;;;;;;;31.74;44.51;100129.58;1755202;81;20411;-77
2021/06/26 05:03:29;;;;;;;;;;;;;;;31.76;44.24;100122.61;1774483;81;20493;-77
2021/06/26 05:05:58;;;;;;;;;;;;;;;31.82;43.95;100127.48;1772198;81;20208;-77
2021/06/26 05:08:24;;;;;;;;;;;;;;;31.88;43.88;100130.99;1803533;79;20469;-78
2021/06/26 05:10:52;;;;;;;;;;;;;;;31.93;44.15;100128.11;1800254;79;20590;-78
2021/06/26 05:13:19;;;;;;;;;;;;;;;31.96;44.23;100116.42;1800194;79;20195;-77
2021/06/26 05:15:45;;;;;;;;;;;;;;;31.99;43.89;100114.43;1800988;79;20704;-77
2021/06/26 05:18:11;;;;;;;;;;;;;;;32.00;43.62;100120.22;1800953;79;20175;-77
2021/06/26 05:20:39;;;;;;;;;;;;;;;32.00;44.00;100118.27;1800820;79;20167;-77
2021/06/26 05:23:13;;;;;;;;;;;;;;;32.03;43.99;100116.27;1808964;78;20604;-77
2021/06/26 05:25:39;;;;;;;;;;;;;;;32.07;43.92;100111.75;1834590;78;20548;-77
2021/06/26 05:28:05;;;;;;;;;;;;;;;32.12;44.26;100115.55;1836001;78;20207;-77
2021/06/26 05:30:31;;;;;;;;;;;;;;;32.16;44.26;100111.84;1836307;78;20196;-77
2021/06/26 05:32:57;;;;;;;;;;;;;;;32.18;44.31;100113.73;1836220;78;20171;-77
2021/06/26 05:35:23;;;;;;;;;;;;;;;32.22;44.03;100121.68;1835987;78;20658;-77
2021/06/26 05:37:50;;;;;;;;;;;;;;;32.26;43.85;100115.77;1834549;78;20402;-77
2021/06/26 05:40:16;;;;;;;;;;;;;;;32.29;43.82;100118.47;1803161;78;20179;-76
2021/06/26 05:42:42;;;;;;;;;;;;;;;32.32;43.82;100113.12;1777308;78;20243;-76
2021/06/26 05:45:08;;;;;;;;;;;;;;;32.37;43.69;100119.69;1803903;79;20156;-77
2021/06/26 05:47:34;;;;;;;;;;;;;;;32.39;43.79;100110.55;1803875;79;20099;-76
2021/06/26 05:50:00;;;;;;;;;;;;;;;32.44;43.83;100113.20;1803698;79;20213;-76
2021/06/26 05:52:26;;;;;;;;;;;;;;;32.49;43.81;100114.47;1802794;79;20138;-77
2021/06/26 05:54:53;;;;;;;;;;;;;;;32.54;43.80;100109.61;1802937;79;20151;-77
2021/06/26 05:57:19;;;;;;;;;;;;;;;32.63;43.92;100108.30;1803252;79;20751;-77
2021/06/26 05:59:45;;;;;;;;;;;;;;;32.70;43.77;100107.27;1803765;79;20216;-77
2021/06/26 06:02:14;;;;;;;;;;;;;;;32.76;43.78;100118.52;1804232;79;20156;-77
2021/06/26 06:04:41;;;;;;;;;;;;;;;32.83;43.82;100116.11;1804660;79;20145;-77
2021/06/26 06:07:10;;;;;;;;;;;;;;;32.97;43.45;100124.97;1803818;78;20396;-77
2021/06/26 06:09:36;;;;;;;;;;;;;;;33.06;43.13;100133.59;1783903;79;20159;-77
2021/06/26 06:12:03;;;;;;;;;;;;;;;33.18;42.83;100137.77;1802725;79;20140;-77
2021/06/26 06:14:29;;;;;;;;;;;;;;;33.30;42.83;100140.79;1804109;78;20668;-78
2021/06/26 06:16:55;;;;;;;;;;;;;;;33.44;42.60;100140.73;1800503;79;20160;-78
2021/06/26 06:19:21;;;;;;;;;;;;;;;33.60;42.40;100134.99;1800382;79;20209;-78
2021/06/26 06:21:47;;;;;;;;;;;;;;;33.75;41.71;100134.59;1800454;79;20491;-77
2021/06/26 06:24:14;;;;;;;;;;;;;;;33.93;41.06;100140.17;1804353;79;20147;-77
2021/06/26 06:26:40;;;;;;;;;;;;;;;34.04;40.75;100142.95;1779454;79;20139;-77
2021/06/26 06:29:06;;;;;;;;;;;;;;;34.16;40.20;100132.03;1805026;79;20177;-77
2021/06/26 06:31:33;;;;;;;;;;;;;;;34.28;39.97;100130.81;1804326;79;20178;-77
2021/06/26 06:33:59;;;;;;;;;;;;;;;34.40;39.73;100137.13;1803032;79;20174;-77
2021/06/26 06:36:25;;;;;;;;;;;;;;;34.51;39.44;100135.69;1802801;79;20233;-77
2021/06/26 06:38:51;;;;;;;;;;;;;;;34.61;39.38;100140.68;1803821;79;20143;-78
2021/06/26 06:41:18;;;;;;;;;;;;;;;34.68;39.33;100140.45;1804488;79;20649;-78
2021/06/26 06:43:43;;;;;;;;;;;;;;;34.76;39.62;100131.28;1804028;79;20090;-77
2021/06/26 06:46:09;;;;;;;;;;;;;;;34.88;39.49;100134.78;1804779;79;20148;-80
2021/06/26 06:48:36;;;;;;;;;;;;;;;35.00;39.20;100136.36;1804401;79;20160;-79
2021/06/26 06:51:02;;;;;;;;;;;;;;;35.14;39.02;100129.78;1804229;78;20698;-78
2021/06/26 06:53:28;;;;;;;;;;;;;;;35.28;38.78;100130.41;1804235;79;20154;-79
2021/06/26 06:55:58;;;;;;;;;;;;;;;35.40;38.75;100125.55;1804529;79;20169;-76
2021/06/26 06:58:22;;;;;;;;;;;;;;;35.56;38.38;100123.86;1803887;79;20131;-78
2021/06/26 07:00:48;;;;;;;;;;;;;;;35.70;38.29;100128.66;1804421;79;20150;-77
2021/06/26 07:03:13;;;;;;;;;;;;;;;35.85;38.01;100125.06;1803319;79;20166;-78
2021/06/26 07:05:40;;;;;;;;;;;;;;;35.97;37.87;100119.02;1804368;79;20424;-78
2021/06/26 07:08:05;;;;;;;;;;;;;;;36.14;37.53;100121.47;1773470;81;20257;-78
2021/06/26 07:10:31;;;;;;;;;;;;;;;36.28;37.42;100120.05;1773860;81;20546;-77
2021/06/26 07:12:57;;;;;;;;;;;;;;;36.43;37.27;100115.02;1773039;81;20185;-78
2021/06/26 07:15:24;;;;;;;;;;;;;;;36.56;36.68;100105.04;1771852;81;20196;-77
2021/06/26 07:17:51;;;;;;;;;;;;;;;36.65;36.25;100104.94;1779509;79;20487;-78
2021/06/26 07:20:17;;;;;;;;;;;;;;;36.71;36.06;100106.95;1787916;79;20176;-77
2021/06/26 07:22:43;;;;;;;;;;;;;;;36.76;36.30;100108.95;1803658;79;20222;-76
2021/06/26 07:25:11;;;;;;;;;;;;;;;36.85;36.06;100104.69;1769569;79;20407;-77
2021/06/26 07:27:37;;;;;;;;;;;;;;;36.92;36.00;100104.14;1770053;79;20158;-77
2021/06/26 07:30:04;;;;;;;;;;;;;;;36.96;35.92;100101.72;1770578;81;20241;-77
2021/06/26 07:32:30;;;;;;;;;;;;;;;37.02;35.69;100097.56;1771872;81;20174;-77
2021/06/26 07:34:56;;;;;;;;;;;;;;;37.07;35.46;100100.14;1770673;79;20186;-77
2021/06/26 07:37:23;;;;;;;;;;;;;;;37.16;35.34;100097.25;1774684;79;20173;-77
2021/06/26 07:39:49;;;;;;;;;;;;;;;37.18;35.68;100095.50;1791990;79;20174;-77
2021/06/26 07:42:15;;;;;;;;;;;;;;;37.23;35.76;100096.67;1772532;79;20150;-77
2021/06/26 07:44:41;;;;;;;;;;;;;;;37.31;35.71;100103.55;1771673;81;20214;-77
2021/06/26 07:47:07;;;;;;;;;;;;;;;37.39;35.02;100099.66;1738952;82;20808;-77
2021/06/26 07:49:34;;;;;;;;;;;;;;;37.46;35.09;100098.48;1800708;79;20404;-77
2021/06/26 07:52:00;;;;;;;;;;;;;;;37.49;35.01;100099.19;1801610;79;20233;-77
2021/06/26 07:54:26;;;;;;;;;;;;;;;37.50;35.07;100096.62;1802016;79;20708;-77
2021/06/26 07:56:52;;;;;;;;;;;;;;;37.53;34.96;100084.17;1803595;78;20151;-77
2021/06/26 07:59:18;;;;;;;;;;;;;;;37.59;34.77;100087.55;1807902;78;20228;-78
2021/06/26 08:01:45;;;;;;;;;;;;;;;37.64;34.84;100082.30;1803704;79;20130;-78
2021/06/26 08:04:11;;;;;;;;;;;;;;;37.71;35.25;100077.77;1823721;78;20164;-77
2021/06/26 08:06:37;;;;;;;;;;;;;;;37.81;35.27;100084.28;1835935;78;20148;-78
2021/06/26 08:09:04;;;;;;;;;;;;;;;37.91;34.95;100085.00;1806393;78;20150;-77
2021/06/26 08:11:30;;;;;;;;;;;;;;;37.97;34.70;100076.01;1803681;79;20143;-78
2021/06/26 08:13:57;;;;;;;;;;;;;;;38.03;34.56;100072.41;1802841;79;20146;-77
2021/06/26 08:16:25;;;;;;;;;;;;;;;38.07;34.64;100067.74;1803812;79;20143;-78
2021/06/26 08:18:51;;;;;;;;;;;;;;;38.16;34.77;100067.61;1803686;79;20527;-78
2021/06/26 08:21:19;;;;;;;;;;;;;;;38.28;34.35;100072.56;1803893;79;20143;-78
2021/06/26 08:23:46;;;;;;;;;;;;;;;38.35;34.43;100069.80;1800688;79;20135;-77
2021/06/26 08:26:12;;;;;;;;;;;;;;;38.39;34.64;100063.73;1803498;78;20408;-78
2021/06/26 08:28:39;;;;;;;;;;;;;;;38.44;34.27;100058.69;1831582;78;20433;-78
2021/06/26 08:31:05;;;;;;;;;;;;;;;38.53;34.22;100063.55;1831431;78;20387;-78
2021/06/26 08:33:31;;;;;;;;;;;;;;;38.55;33.99;100057.58;1831210;78;20157;-78
2021/06/26 08:35:59;;;;;;;;;;;;;;;38.54;34.16;100060.16;1810305;78;20139;-78
2021/06/26 08:38:25;;;;;;;;;;;;;;;38.48;34.30;100061.59;1801381;78;20181;-78
2021/06/26 08:40:53;;;;;;;;;;;;;;;38.46;34.05;100059.12;1802821;79;20157;-78
2021/06/26 08:43:19;;;;;;;;;;;;;;;38.43;33.89;100051.47;1802982;79;20154;-78
2021/06/26 08:45:46;;;;;;;;;;;;;;;38.42;33.92;100051.21;1802707;79;20139;-77
2021/06/26 08:48:12;;;;;;;;;;;;;;;38.43;33.75;100045.03;1802581;79;20151;-77
2021/06/26 08:50:38;;;;;;;;;;;;;;;38.41;34.21;100041.78;1799145;79;20217;-77
2021/06/26 08:53:04;;;;;;;;;;;;;;;38.41;34.27;100035.60;1802778;79;20163;-78
2021/06/26 08:55:30;;;;;;;;;;;;;;;38.43;34.04;100037.48;1804223;79;20135;-78
2021/06/26 08:57:57;;;;;;;;;;;;;;;38.41;34.03;100034.80;1805497;78;20141;-78
2021/06/26 09:00:25;;;;;;;;;;;;;;;38.40;33.90;100026.17;1805193;79;20182;-78
2021/06/26 09:02:52;;;;;;;;;;;;;;;38.37;34.06;100029.09;1804185;79;20140;-78
2021/06/26 09:05:25;;;;;;;;;;;;;;;38.33;34.06;100026.18;1801052;78;20136;-77
2021/06/26 09:07:51;;;;;;;;;;;;;;;38.29;34.03;100018.27;1773105;81;20171;-77
2021/06/26 09:10:22;;;;;;;;;;;;;;;38.25;34.21;100013.73;1771375;79;20174;-78
2021/06/26 09:12:51;;;;;;;;;;;;;;;38.22;34.60;100009.66;1724318;82;20357;-78
2021/06/26 09:15:27;;;;;;;;;;;;;;;38.21;34.49;100009.43;1739416;82;20517;-78
2021/06/26 09:17:54;;;;;;;;;;;;;;;38.20;34.89;100010.61;1787767;79;20652;-77
2021/06/26 09:20:22;;;;;;;;;;;;;;;38.17;34.88;100008.51;1802837;78;20147;-77
2021/06/26 09:22:51;;;;;;;;;;;;;;;38.12;34.76;100005.16;1800581;78;20243;-76
2021/06/26 09:25:35;;;;;;;;;;;;;;;38.06;35.07;100004.02;1801265;79;20143;-77
2021/06/26 09:28:03;;;;;;;;;;;;;;;38.02;35.35;100001.69;1800814;79;20090;-76
2021/06/26 09:30:41;;;;;;;;;;;;;;;37.97;35.31;100003.89;1801341;79;20147;-76
2021/06/26 09:33:12;;;;;;;;;;;;;;;37.89;35.14;99990.89;1802679;79;20385;-77
2021/06/26 09:35:38;;;;;;;;;;;;;;;37.79;35.61;100001.37;1830359;78;20752;-76
2021/06/26 09:38:06;;;;;;;;;;;;;;;37.73;35.87;99997.75;1799094;79;20139;-77
2021/06/26 09:40:32;;;;;;;;;;;;;;;37.67;35.92;99990.20;1800613;79;20178;-77
2021/06/26 09:42:57;;;;;;;;;;;;;;;37.61;35.63;99988.82;1828746;78;20159;-76
2021/06/26 09:45:26;;;;;;;;;;;;;;;37.54;35.70;99989.39;1836753;78;20462;-77
2021/06/26 09:47:52;;;;;;;;;;;;;;;37.63;35.44;99989.27;1836639;78;20133;-77
2021/06/26 09:50:21;;;;;;;;;;;;;;;37.41;35.59;99988.36;1836586;78;20159;-77
2021/06/26 09:53:00;;;;;;;;;;;;;;;37.32;35.71;99992.05;1836325;78;20378;-78
2021/06/26 09:55:39;;;;;;;;;;;;;;;37.25;36.00;99991.83;1836575;78;20175;-77
2021/06/26 09:58:10;;;;;;;;;;;;;;;37.21;36.04;99990.89;1837890;78;20141;-76
2021/06/26 10:00:36;;;;;;;;;;;;;;;37.11;36.47;99995.55;1838358;78;20129;-77
2021/06/26 10:03:03;;;;;;;;;;;;;;;37.05;36.66;99992.73;1807085;78;20498;-77
2021/06/26 10:05:31;;;;;;;;;;;;;;;37.00;36.87;99996.56;1798760;79;20503;-77
2021/06/26 10:08:00;;;;;;;;;;;;;;;36.95;36.84;99998.77;1801295;79;20155;-77
2021/06/26 10:10:26;;;;;;;;;;;;;;;36.92;37.01;99998.06;1804609;79;20144;-77
2021/06/26 10:12:52;;;;;;;;;;;;;;;36.87;36.91;99996.86;1803618;79;20130;-77
2021/06/26 10:15:22;;;;;;;;;;;;;;;36.81;36.93;99991.50;1747960;81;20134;-77
2021/06/26 10:17:49;;;;;;;;;;;;;;;36.77;36.85;99993.36;1773134;81;20089;-77
2021/06/26 10:20:17;;;;;;;;;;;;;;;36.74;37.17;99989.84;1754565;81;20419;-77
2021/06/26 10:22:45;;;;;;;;;;;;;;;36.71;37.69;99991.95;1773448;80;20406;-77
2021/06/26 10:25:11;;;;;;;;;;;;;;;36.68;37.94;99982.05;1741044;81;20103;-77
2021/06/26 10:27:37;;;;;;;;;;;;;;;36.64;38.18;99984.72;1771597;79;20192;-77
2021/06/26 10:30:17;;;;;;;;;;;;;;;36.64;38.09;99982.51;1772834;80;20173;-77
2021/06/26 10:32:51;;;;;;;;;;;;;;;36.59;38.59;99975.17;1802556;78;20170;-78
2021/06/26 10:35:17;;;;;;;;;;;;;;;36.57;38.62;99983.90;1804546;79;20182;-77
2021/06/26 10:37:44;;;;;;;;;;;;;;;36.54;38.92;99978.19;1805313;79;20132;-77
2021/06/26 10:40:15;;;;;;;;;;;;;;;36.51;39.37;99980.26;1779711;78;20435;-77
2021/06/26 10:42:48;;;;;;;;;;;;;;;36.47;38.82;99980.70;1770481;81;20132;-77
2021/06/26 10:45:27;;;;;;;;;;;;;;;36.46;38.45;99981.29;1777663;79;20363;-76
2021/06/26 10:47:52;;;;;;;;;;;;;;;36.41;38.08;99980.66;1803603;79;20170;-78
2021/06/26 10:50:20;;;;;;;;;;;;;;;36.36;37.75;99976.11;1804091;79;20178;-77
2021/06/26 10:52:56;;;;;;;;;;;;;;;36.32;37.99;99978.77;1805905;79;20843;-76
2021/06/26 10:55:36;;;;;;;;;;;;;;;36.31;37.68;99974.94;1804589;79;20178;-77
2021/06/26 10:58:04;;;;;;;;;;;;;;;36.28;38.06;99972.83;1804805;79;20155;-77
2021/06/26 11:00:38;;;;;;;;;;;;;;;36.24;38.10;99979.66;1803544;79;20186;-77
2021/06/26 11:03:05;;;;;;;;;;;;;;;36.20;38.10;99980.13;1804445;79;20177;-77
2021/06/26 11:05:36;;;;;;;;;;;;;;;36.17;38.18;99982.78;1803703;79;20200;-76
2021/06/26 11:08:14;;;;;;;;;;;;;;;36.12;38.22;99980.20;1802923;79;20171;-76
2021/06/26 11:10:53;;;;;;;;;;;;;;;36.07;38.35;99975.66;1804423;79;20450;-76
2021/06/26 11:13:21;;;;;;;;;;;;;;;36.02;38.65;99975.83;1789163;79;20162;-77
2021/06/26 11:15:49;;;;;;;;;;;;;;;35.97;38.44;99978.25;1772716;81;20146;-77
2021/06/26 11:18:16;;;;;;;;;;;;;;;35.94;38.94;99973.34;1773008;81;21330;-77
2021/06/26 11:20:42;;;;;;;;;;;;;;;35.92;39.53;99972.03;1791403;78;20536;-76
2021/06/26 11:23:08;;;;;;;;;;;;;;;35.89;39.89;99976.92;1804375;79;20194;-77
2021/06/26 11:25:36;;;;;;;;;;;;;;;35.86;40.00;99970.03;1825883;78;20161;-77
2021/06/26 11:28:04;;;;;;;;;;;;;;;35.85;40.19;99973.17;1837421;78;20215;-77
2021/06/26 11:30:30;;;;;;;;;;;;;;;35.85;40.11;99967.60;1837746;78;20471;-77
2021/06/26 11:32:57;;;;;;;;;;;;;;;35.82;40.13;99967.11;1810051;78;20141;-77
2021/06/26 11:35:25;;;;;;;;;;;;;;;35.80;39.84;99963.05;1804293;78;20391;-76
2021/06/26 11:37:51;;;;;;;;;;;;;;;35.76;40.14;99958.72;1812664;78;20873;-76
2021/06/26 11:40:20;;;;;;;;;;;;;;;35.74;40.25;99961.02;1806756;78;20135;-77
2021/06/26 11:43:02;;;;;;;;;;;;;;;35.73;39.91;99960.78;1800280;79;20421;-77
2021/06/26 11:45:39;;;;;;;;;;;;;;;35.76;39.60;99961.52;1800823;79;20448;-77
2021/06/26 11:48:10;;;;;;;;;;;;;;;35.71;39.45;99954.75;1799428;79;20143;-77
2021/06/26 11:50:43;;;;;;;;;;;;;;;35.68;39.11;99949.84;1806258;78;20190;-77
2021/06/26 11:53:11;;;;;;;;;;;;;;;35.66;39.12;99953.56;1797540;79;20178;-77
2021/06/26 11:55:40;;;;;;;;;;;;;;;35.66;38.44;99954.95;1800194;79;20135;-76
2021/06/26 11:58:06;;;;;;;;;;;;;;;35.64;38.45;99951.67;1770239;81;20773;-76
2021/06/26 12:00:32;;;;;;;;;;;;;;;35.63;38.36;99951.44;1800111;79;20140;-76
2021/06/26 12:02:58;;;;;;;;;;;;;;;35.61;37.39;99946.77;1775128;79;20798;-76
2021/06/26 12:05:24;;;;;;;;;;;;;;;35.62;37.21;99951.21;1801249;79;20217;-76
2021/06/26 12:07:50;;;;;;;;;;;;;;;35.61;36.31;99943.98;1799851;79;20167;-76
2021/06/26 12:10:19;;;;;;;;;;;;;;;35.63;36.22;99942.27;1799813;79;20139;-76
2021/06/26 12:12:45;;;;;;;;;;;;;;;35.64;35.99;99948.88;1771383;81;20542;-78
2021/06/26 12:15:14;;;;;;;;;;;;;;;35.65;35.88;99944.12;1801221;79;20186;-77
2021/06/26 12:17:40;;;;;;;;;;;;;;;35.65;36.04;99937.97;1804855;79;20166;-77
2021/06/26 12:20:08;;;;;;;;;;;;;;;35.67;36.20;99937.08;1779226;78;20170;-76
2021/06/26 12:22:34;;;;;;;;;;;;;;;35.69;36.50;99933.36;1803178;79;20179;-76
2021/06/26 12:25:16;;;;;;;;;;;;;;;35.68;36.56;99932.31;1799625;79;20159;-76
2021/06/26 12:27:42;;;;;;;;;;;;;;;35.65;36.46;99925.44;1800321;79;20143;-76
2021/06/26 12:30:16;;;;;;;;;;;;;;;35.65;36.77;99919.86;1800808;79;20131;-77
2021/06/26 12:32:42;;;;;;;;;;;;;;;35.64;36.81;99915.45;1801099;79;20142;-77
2021/06/26 12:35:09;;;;;;;;;;;;;;;35.64;36.81;99911.85;1800513;79;20506;-76
2021/06/26 12:37:39;;;;;;;;;;;;;;;35.63;36.89;99913.83;1801064;79;20140;-77